createdAt,value
2019-03-24T00:00:50.435Z,8.38
2019-03-24T00:05:53.987Z,7.47
2019-03-24T00:10:57.914Z,7.55
2019-03-24T00:16:01.688Z,7.95
2019-03-24T00:21:05.259Z,7.85
2019-03-24T00:26:09.143Z,6.90
2019-03-24T00:31:12.663Z,7.10
2019-03-24T00:36:16.270Z,8.90
2019-03-24T00:41:19.820Z,7.53
2019-03-24T00:46:23.391Z,7.40
2019-03-24T00:51:26.952Z,9.20
2019-03-24T00:56:30.541Z,8.98
2019-03-24T01:01:34.089Z,9.50
2019-03-24T01:06:37.692Z,9.08
2019-03-24T01:11:41.242Z,8.18
2019-03-24T01:16:44.794Z,8.70
2019-03-24T01:21:48.394Z,8.25
2019-03-24T01:26:51.942Z,8.95
2019-03-24T01:31:55.519Z,9.60
2019-03-24T01:36:59.072Z,8.75
2019-03-24T01:42:02.677Z,9.73
2019-03-24T01:47:06.222Z,8.93
2019-03-24T01:52:09.755Z,9.20
2019-03-24T01:57:13.302Z,8.10
2019-03-24T02:02:16.914Z,8.68
2019-03-24T02:07:20.468Z,8.98
2019-03-24T02:12:24.060Z,7.80
2019-03-24T02:17:27.585Z,7.35
2019-03-24T02:22:31.159Z,7.22
2019-03-24T02:27:34.733Z,7.83
2019-03-24T02:32:38.263Z,7.05
2019-03-24T02:37:41.875Z,7.42
2019-03-24T02:42:45.395Z,6.45
2019-03-24T02:47:48.948Z,8.00
2019-03-24T02:52:52.552Z,6.87
2019-03-24T02:57:56.072Z,6.33
2019-03-24T03:02:59.612Z,6.65
2019-03-24T03:08:03.218Z,6.70
2019-03-24T03:13:06.769Z,7.12
2019-03-24T03:18:10.337Z,6.80
2019-03-24T03:23:13.860Z,7.00
2019-03-24T03:28:17.441Z,7.28
2019-03-24T03:33:20.978Z,6.17
2019-03-24T03:38:24.550Z,6.60
2019-03-24T03:43:28.074Z,6.10
2019-03-24T03:48:31.672Z,6.00
2019-03-24T03:53:35.203Z,7.97
2019-03-24T03:58:38.738Z,6.05
2019-03-24T04:03:42.317Z,6.05
2019-03-24T04:08:45.865Z,6.30
2019-03-24T04:13:49.450Z,6.95
2019-03-24T04:18:52.999Z,6.78
2019-03-24T04:23:56.567Z,5.90
2019-03-24T04:29:00.129Z,5.92
2019-03-24T04:34:04.646Z,5.30
2019-03-24T04:39:08.228Z,5.58
2019-03-24T04:44:11.758Z,7.33
2019-03-24T04:49:15.356Z,7.30
2019-03-24T04:54:18.872Z,6.83
2019-03-24T04:59:22.467Z,7.03
2019-03-24T05:04:26.064Z,5.83
2019-03-24T05:09:29.611Z,6.45
2019-03-24T05:14:33.177Z,6.03
2019-03-24T05:19:36.752Z,6.25
2019-03-24T05:24:40.272Z,5.85
2019-03-24T05:29:43.894Z,6.30
2019-03-24T05:34:47.443Z,6.17
2019-03-24T05:39:51.009Z,6.30
2019-03-24T05:44:54.559Z,6.45
2019-03-24T05:49:58.133Z,6.50
2019-03-24T05:55:01.679Z,5.83
2019-03-24T06:00:07.713Z,5.10
2019-03-24T06:05:11.276Z,5.03
2019-03-24T06:10:14.905Z,5.10
2019-03-24T06:15:18.503Z,5.35
2019-03-24T06:20:22.029Z,5.23
2019-03-24T06:25:25.641Z,5.25
2019-03-24T06:30:29.182Z,5.08
2019-03-24T06:35:32.756Z,4.75
2019-03-24T06:40:36.289Z,4.80
2019-03-24T06:45:39.888Z,5.33
2019-03-24T06:50:43.429Z,7.62
2019-03-24T06:55:47.029Z,6.62
2019-03-24T07:00:50.581Z,7.40
2019-03-24T07:05:54.173Z,6.05
2019-03-24T07:10:57.723Z,6.37
2019-03-24T07:16:01.294Z,5.60
2019-03-24T07:21:05.015Z,4.67
2019-03-24T07:26:08.602Z,5.90
2019-03-24T07:31:12.162Z,5.60
2019-03-24T07:36:15.738Z,4.78
2019-03-24T07:41:19.291Z,6.08
2019-03-24T07:46:22.867Z,4.85
2019-03-24T07:51:26.474Z,4.75
2019-03-24T07:56:30.000Z,5.22
2019-03-24T08:01:33.587Z,4.70
2019-03-24T08:06:38.028Z,4.42
2019-03-24T08:11:41.584Z,21.25
2019-03-24T08:16:45.138Z,8.35
2019-03-24T08:21:48.711Z,9.67
2019-03-24T08:26:52.329Z,7.58
2019-03-24T08:31:55.926Z,5.78
2019-03-24T08:36:59.452Z,6.30
2019-03-24T08:42:03.090Z,6.08
2019-03-24T08:47:06.717Z,5.37
2019-03-24T08:52:10.281Z,5.33
2019-03-24T08:57:13.880Z,5.30
2019-03-24T09:02:17.453Z,5.35
2019-03-24T09:07:21.086Z,5.53
2019-03-24T09:12:24.669Z,5.58
2019-03-24T09:17:28.801Z,5.53
2019-03-24T09:22:32.377Z,5.15
2019-03-24T09:27:35.900Z,5.50
2019-03-24T09:32:39.448Z,5.60
2019-03-24T09:37:43.027Z,5.17
2019-03-24T09:42:46.575Z,5.47
2019-03-24T09:47:50.160Z,5.42
2019-03-24T09:52:53.702Z,5.30
2019-03-24T09:57:57.287Z,5.67
2019-03-24T10:03:00.895Z,5.65
2019-03-24T10:08:05.333Z,6.17
2019-03-24T10:13:08.953Z,6.24
2019-03-24T10:18:12.585Z,6.05
2019-03-24T10:23:16.226Z,6.15
2019-03-24T10:28:19.817Z,5.70
2019-03-24T10:33:23.428Z,5.60
2019-03-24T10:38:26.162Z,5.92
2019-03-24T10:43:29.756Z,5.08
2019-03-24T10:48:34.041Z,5.50
2019-03-24T10:53:37.794Z,4.90
2019-03-24T10:58:41.434Z,5.00
2019-03-24T11:03:45.053Z,4.65
2019-03-24T11:08:48.677Z,4.37
2019-03-24T11:13:52.542Z,4.35
2019-03-24T11:18:56.217Z,4.83
2019-03-24T11:23:59.827Z,4.10
2019-03-24T11:29:03.452Z,4.22
2019-03-24T11:34:07.079Z,3.98
2019-03-24T11:39:10.691Z,3.90
2019-03-24T11:44:14.315Z,4.08
2019-03-24T11:49:19.015Z,3.90
2019-03-24T11:54:22.671Z,3.85
2019-03-24T11:59:26.504Z,3.47
2019-03-24T12:04:30.842Z,3.30
2019-03-24T12:09:34.459Z,3.37
2019-03-24T12:14:38.073Z,3.27
2019-03-24T12:19:41.694Z,3.35
2019-03-24T12:24:45.320Z,3.45
2019-03-24T12:29:48.879Z,3.40
2019-03-24T12:34:52.446Z,3.10
2019-03-24T12:39:57.985Z,3.10
2019-03-24T12:45:01.436Z,3.47
2019-03-24T12:50:10.102Z,2.95
2019-03-24T12:55:13.996Z,3.65
2019-03-24T13:00:23.529Z,3.50
2019-03-24T13:05:27.176Z,4.12
2019-03-24T13:10:30.796Z,3.47
2019-03-24T13:15:34.515Z,3.80
2019-03-24T13:20:38.810Z,3.60
2019-03-24T13:25:42.683Z,3.33
2019-03-24T13:30:46.291Z,3.80
2019-03-24T13:35:51.384Z,3.37
2019-03-24T13:40:55.070Z,3.37
2019-03-24T13:45:58.688Z,3.35
2019-03-24T13:51:02.309Z,3.52
2019-03-24T13:56:05.857Z,3.83
2019-03-24T14:01:10.305Z,3.35
2019-03-24T14:06:14.190Z,3.30
2019-03-24T14:11:17.864Z,3.25
2019-03-24T14:16:21.530Z,3.30
2019-03-24T14:21:25.495Z,3.35
2019-03-24T14:26:29.279Z,3.10
2019-03-24T14:31:32.904Z,3.20
2019-03-24T14:36:36.519Z,3.10
2019-03-24T14:41:40.493Z,3.33
2019-03-24T14:46:44.330Z,2.90
2019-03-24T14:51:48.215Z,3.40
2019-03-24T14:56:51.814Z,3.17
2019-03-24T15:01:55.438Z,2.95
2019-03-24T15:06:59.018Z,3.30
2019-03-24T15:12:02.642Z,3.20
2019-03-24T15:17:06.298Z,2.87
2019-03-24T15:22:09.920Z,2.95
2019-03-24T15:27:13.534Z,2.90
2019-03-24T15:32:17.158Z,3.37
2019-03-24T15:37:20.682Z,3.08
2019-03-24T15:42:24.261Z,3.55
2019-03-24T15:47:27.789Z,3.27
2019-03-24T15:52:31.362Z,3.08
2019-03-24T15:57:35.270Z,3.30
2019-03-24T16:02:39.021Z,3.50
2019-03-24T16:07:43.212Z,4.05
2019-03-24T16:12:46.771Z,4.15
2019-03-24T16:17:52.000Z,3.83
2019-03-24T16:22:55.674Z,3.40
2019-03-24T16:27:59.251Z,3.20
2019-03-24T16:33:02.773Z,3.70
2019-03-24T16:38:06.339Z,3.45
2019-03-24T16:43:09.976Z,3.60
2019-03-24T16:48:13.514Z,3.40
2019-03-24T16:53:17.132Z,4.08
2019-03-24T16:58:20.733Z,3.83
2019-03-24T17:03:24.356Z,3.42
2019-03-24T17:08:27.968Z,4.00
2019-03-24T17:13:31.590Z,3.90
2019-03-24T17:18:35.212Z,8.80
2019-03-24T17:23:38.785Z,44.38
2019-03-24T17:28:42.453Z,55.08
2019-03-24T17:33:46.064Z,68.28
2019-03-24T17:38:49.802Z,61.92
2019-03-24T17:44:02.843Z,53.50
2019-03-24T17:48:59.079Z,47.67
2019-03-24T17:54:02.653Z,47.70
2019-03-24T17:59:06.257Z,41.08
2019-03-24T18:04:09.833Z,40.88
2019-03-24T18:09:13.455Z,44.38
2019-03-24T18:14:20.962Z,40.75
2019-03-24T18:19:24.581Z,44.45
2019-03-24T18:24:28.152Z,42.43
2019-03-24T18:29:32.244Z,38.02
2019-03-24T18:34:37.960Z,37.48
2019-03-24T18:39:41.926Z,38.00
2019-03-24T18:44:45.544Z,33.35
2019-03-24T18:49:49.166Z,32.65
2019-03-24T18:54:52.892Z,32.08
2019-03-24T18:59:56.934Z,33.13
2019-03-24T19:05:00.594Z,29.60
2019-03-24T19:10:07.455Z,31.05
2019-03-24T19:15:13.310Z,30.03
2019-03-24T19:20:16.927Z,29.57
2019-03-24T19:25:20.545Z,27.60
2019-03-24T19:30:35.597Z,24.90
2019-03-24T19:35:39.344Z,24.18
2019-03-24T19:40:43.879Z,25.65
2019-03-24T19:45:49.001Z,23.73
2019-03-24T19:50:53.643Z,24.40
2019-03-24T19:55:58.808Z,25.00
2019-03-24T20:01:02.806Z,23.20
2019-03-24T20:06:06.946Z,23.85
2019-03-24T20:11:10.629Z,21.37
2019-03-24T20:16:14.517Z,21.55
2019-03-24T20:21:18.425Z,21.90
2019-03-24T20:26:22.071Z,21.70
2019-03-24T20:31:26.189Z,19.30
2019-03-24T20:36:30.134Z,20.92
2019-03-24T20:41:34.035Z,20.00
2019-03-24T20:46:37.713Z,19.15
2019-03-24T20:51:41.270Z,20.08
2019-03-24T20:56:45.481Z,18.63
2019-03-24T21:01:49.015Z,19.40
2019-03-24T21:06:52.644Z,18.90
2019-03-24T21:11:56.173Z,18.40
2019-03-24T21:16:59.836Z,17.12
2019-03-24T21:22:03.563Z,17.20
2019-03-24T21:27:07.359Z,17.32
2019-03-24T21:32:11.102Z,17.80
2019-03-24T21:37:14.694Z,16.80
2019-03-24T21:42:18.275Z,17.00
2019-03-24T21:47:21.964Z,16.20
2019-03-24T21:52:25.713Z,15.03
2019-03-24T21:57:29.257Z,15.85
2019-03-24T22:02:32.990Z,16.32
2019-03-24T22:07:36.576Z,15.05
2019-03-24T22:12:40.381Z,15.48
2019-03-24T22:17:44.089Z,15.13
2019-03-24T22:22:48.015Z,14.80
2019-03-24T22:27:51.769Z,15.00
2019-03-24T22:32:55.359Z,14.55
2019-03-24T22:37:59.079Z,14.05
2019-03-24T22:43:02.654Z,14.35
2019-03-24T22:48:06.318Z,14.90
2019-03-24T22:53:09.939Z,13.90
2019-03-24T22:58:13.762Z,14.00
2019-03-24T23:03:17.914Z,13.65
2019-03-24T23:08:21.513Z,12.43
2019-03-24T23:13:25.133Z,13.03
2019-03-24T23:18:28.750Z,12.28
2019-03-24T23:23:32.368Z,12.78
2019-03-24T23:28:35.985Z,11.35
2019-03-24T23:33:39.607Z,11.55
2019-03-24T23:38:43.230Z,10.75
2019-03-24T23:43:46.952Z,11.22
2019-03-24T23:48:50.574Z,10.35
2019-03-24T23:53:54.154Z,10.08
2019-03-24T23:58:57.712Z,10.45
